Time;durP1;ratioP1;P1;durP2;ratioP2;P2;SDS_P1;SDS_P2;PMS_P1;PMS_P2;Temp;Humidity;BMP_temperature;BMP_pressure;BME280_temperature;BME280_humidity;BME280_pressure;Samples;Min_cycle;Max_cycle;Signal;HPM_P1;HPM_P2
2024/01/30 00:01:28;;;;;;;;;;;9.20;99.90;;;;;;5012083;28;20385;-72
2024/01/30 00:03:53;;;;;;;;;;;9.20;99.90;;;;;;5029647;28;19920;-71
2024/01/30 00:06:23;;;;;;;;;;;9.20;99.90;;;;;;5030212;28;20439;-71
2024/01/30 00:08:49;;;;;;;;;;;9.20;99.90;;;;;;5011921;28;19954;-71
2024/01/30 00:11:15;;;;;;;;;;;9.20;99.90;;;;;;5029943;28;19921;-71
2024/01/30 00:13:41;;;;;;;;;;;9.30;99.90;;;;;;5030400;28;20351;-73
2024/01/30 00:16:08;;;;;;;;;;;9.20;99.90;;;;;;5012035;28;19917;-73
2024/01/30 00:18:34;;;;;;;;;;;9.20;99.90;;;;;;5012154;28;20012;-71
2024/01/30 00:21:00;;;;;;;;;;;9.10;99.90;;;;;;5029922;28;20055;-72
2024/01/30 00:23:25;;;;;;;;;;;9.10;99.90;;;;;;5030004;28;20012;-72
2024/01/30 00:25:51;;;;;;;;;;;9.10;99.90;;;;;;5029929;28;19989;-72
2024/01/30 00:28:17;;;;;;;;;;;9.10;99.90;;;;;;5029953;28;19913;-72
2024/01/30 00:30:43;;;;;;;;;;;9.10;99.90;;;;;;5029954;28;20237;-71
2024/01/30 00:33:09;;;;;;;;;;;9.10;99.90;;;;;;5029870;28;19917;-72
2024/01/30 00:35:35;;;;;;;;;;;9.10;99.90;;;;;;5011788;28;19976;-72
2024/01/30 00:38:01;;;;;;;;;;;9.10;99.90;;;;;;5031229;28;20332;-72
2024/01/30 00:40:27;;;;;;;;;;;9.10;99.90;;;;;;5015943;28;19913;-72
2024/01/30 00:42:53;;;;;;;;;;;9.10;99.90;;;;;;5015679;28;20285;-72
2024/01/30 00:45:18;;;;;;;;;;;9.10;99.90;;;;;;5031984;28;20330;-71
2024/01/30 00:47:44;;;;;;;;;;;9.10;99.90;;;;;;5048772;28;19909;-72
2024/01/30 00:50:11;;;;;;;;;;;9.10;99.90;;;;;;5033577;28;19909;-70
2024/01/30 00:52:38;;;;;;;;;;;9.00;99.90;;;;;;5015444;28;20008;-71
2024/01/30 00:55:05;;;;;;;;;;;9.00;99.90;;;;;;4999185;28;19950;-71
2024/01/30 00:57:31;;;;;;;;;;;9.00;99.90;;;;;;5031726;28;20008;-69
2024/01/30 00:59:57;;;;;;;;;;;8.90;99.90;;;;;;5032643;28;20008;-72
2024/01/30 01:02:23;;;;;;;;;;;8.90;99.90;;;;;;5032243;28;20004;-72
2024/01/30 01:04:49;;;;;;;;;;;8.80;99.90;;;;;;5032431;28;19952;-69
2024/01/30 01:07:18;;;;;;;;;;;8.80;99.90;;;;;;5033425;28;19909;-69
2024/01/30 01:09:43;;;;;;;;;;;8.80;99.90;;;;;;5032770;28;19909;-72
2024/01/30 01:12:09;;;;;;;;;;;8.80;99.90;;;;;;5032810;28;20219;-71
2024/01/30 01:14:36;;;;;;;;;;;8.80;99.90;;;;;;5032574;28;19909;-71
2024/01/30 01:17:02;;;;;;;;;;;8.70;99.90;;;;;;5014414;28;19920;-72
2024/01/30 01:19:27;;;;;;;;;;;8.60;99.90;;;;;;5032333;28;19913;-72
2024/01/30 01:21:53;;;;;;;;;;;8.70;99.90;;;;;;5029626;28;19913;-72
2024/01/30 01:24:19;;;;;;;;;;;8.60;99.90;;;;;;5032409;28;19932;-71
2024/01/30 01:26:45;;;;;;;;;;;8.50;99.90;;;;;;5033091;28;19999;-73
2024/01/30 01:29:11;;;;;;;;;;;8.50;99.90;;;;;;5032655;28;19909;-73
2024/01/30 01:31:43;;;;;;;;;;;8.50;99.90;;;;;;5032464;28;19985;-74
2024/01/30 01:34:12;;;;;;;;;;;8.40;99.90;;;;;;5032651;28;19909;-70
2024/01/30 01:36:38;;;;;;;;;;;8.40;99.90;;;;;;5032549;28;20015;-71
2024/01/30 01:39:04;;;;;;;;;;;8.40;99.90;;;;;;5014700;28;19909;-72
2024/01/30 01:41:32;;;;;;;;;;;8.20;99.90;;;;;;5032356;28;19936;-72
2024/01/30 01:43:59;;;;;;;;;;;8.30;99.90;;;;;;5032277;28;19914;-72
2024/01/30 01:46:29;;;;;;;;;;;8.30;99.90;;;;;;5032274;28;19915;-72
2024/01/30 01:48:56;;;;;;;;;;;8.20;99.90;;;;;;5013916;28;19909;-71
2024/01/30 01:51:23;;;;;;;;;;;8.30;99.90;;;;;;5013829;28;20298;-70
2024/01/30 01:53:48;;;;;;;;;;;8.20;99.90;;;;;;5032230;28;19913;-71
2024/01/30 01:56:15;;;;;;;;;;;8.30;99.90;;;;;;5032046;28;19924;-71
2024/01/30 01:58:41;;;;;;;;;;;8.30;99.90;;;;;;5031887;28;19909;-70
2024/01/30 02:01:07;;;;;;;;;;;8.30;99.90;;;;;;5032214;28;19909;-71
2024/01/30 02:03:34;;;;;;;;;;;8.30;99.90;;;;;;5031575;28;19917;-70
2024/01/30 02:06:02;;;;;;;;;;;8.30;99.90;;;;;;5031895;28;19909;-71
2024/01/30 02:08:28;;;;;;;;;;;8.20;99.90;;;;;;5031733;28;19909;-71
2024/01/30 02:10:53;;;;;;;;;;;8.20;99.90;;;;;;5031489;28;19986;-71
2024/01/30 02:13:21;;;;;;;;;;;8.20;99.90;;;;;;5031642;28;19913;-71
2024/01/30 02:15:53;;;;;;;;;;;8.10;99.90;;;;;;5031585;28;20008;-69
2024/01/30 02:18:19;;;;;;;;;;;8.10;99.90;;;;;;5031567;28;19932;-70
2024/01/30 02:20:46;;;;;;;;;;;8.00;99.90;;;;;;5042452;28;20046;-71
2024/01/30 02:23:12;;;;;;;;;;;8.00;99.90;;;;;;5051377;28;19980;-71
2024/01/30 02:25:44;;;;;;;;;;;8.00;99.90;;;;;;5051306;28;20450;-69
2024/01/30 02:28:10;;;;;;;;;;;8.00;99.90;;;;;;5051235;28;19931;-71
2024/01/30 02:30:36;;;;;;;;;;;8.00;99.90;;;;;;5066422;28;20007;-71
2024/01/30 02:33:09;;;;;;;;;;;8.00;99.90;;;;;;5051096;28;20004;-71
2024/01/30 02:35:36;;;;;;;;;;;8.00;99.90;;;;;;5033129;28;19925;-72
2024/01/30 02:38:02;;;;;;;;;;;8.00;99.90;;;;;;5033234;28;20365;-71
2024/01/30 02:40:28;;;;;;;;;;;8.10;99.90;;;;;;5051179;28;19913;-70
2024/01/30 02:42:54;;;;;;;;;;;8.10;99.90;;;;;;5051134;28;19978;-71
2024/01/30 02:45:19;;;;;;;;;;;8.10;99.90;;;;;;5050758;28;20012;-72
2024/01/30 02:47:45;;;;;;;;;;;8.10;99.90;;;;;;5050731;28;19909;-73
2024/01/30 02:50:11;;;;;;;;;;;8.10;99.90;;;;;;5044564;28;19981;-71
2024/01/30 02:52:37;;;;;;;;;;;8.10;99.90;;;;;;5029241;28;20280;-71
2024/01/30 02:55:03;;;;;;;;;;;8.20;99.90;;;;;;5031059;28;19924;-71
2024/01/30 02:57:30;;;;;;;;;;;8.20;99.90;;;;;;5030715;28;20008;-71
2024/01/30 02:59:56;;;;;;;;;;;8.10;99.90;;;;;;5031037;28;19916;-72
2024/01/30 03:02:22;;;;;;;;;;;8.10;99.90;;;;;;5029882;28;19909;-72
2024/01/30 03:04:48;;;;;;;;;;;8.10;99.90;;;;;;5030434;28;19921;-72
2024/01/30 03:07:14;;;;;;;;;;;8.10;99.90;;;;;;5030580;28;19913;-72
2024/01/30 03:09:42;;;;;;;;;;;8.00;99.90;;;;;;5030649;28;19978;-72
2024/01/30 03:12:08;;;;;;;;;;;8.00;99.90;;;;;;5030561;28;19952;-72
2024/01/30 03:14:33;;;;;;;;;;;8.00;99.90;;;;;;5030484;28;19960;-72
2024/01/30 03:16:59;;;;;;;;;;;8.10;99.90;;;;;;5030369;28;19909;-71
2024/01/30 03:19:25;;;;;;;;;;;8.00;99.90;;;;;;5029816;28;20334;-71
2024/01/30 03:21:51;;;;;;;;;;;7.90;99.90;;;;;;5030480;28;19921;-72
2024/01/30 03:24:17;;;;;;;;;;;8.00;99.90;;;;;;5030435;28;20389;-73
2024/01/30 03:26:43;;;;;;;;;;;7.90;99.90;;;;;;5030455;28;19963;-72
2024/01/30 03:29:09;;;;;;;;;;;8.00;99.90;;;;;;5030336;28;19913;-71
2024/01/30 03:31:34;;;;;;;;;;;8.00;99.90;;;;;;5030157;28;20359;-72
2024/01/30 03:34:00;;;;;;;;;;;8.00;99.90;;;;;;5030418;28;19913;-72
2024/01/30 03:36:26;;;;;;;;;;;7.90;99.90;;;;;;5030130;28;19917;-72
2024/01/30 03:38:52;;;;;;;;;;;7.80;99.90;;;;;;5012464;28;20280;-71
2024/01/30 03:41:18;;;;;;;;;;;7.80;99.90;;;;;;5030112;28;20144;-72
2024/01/30 03:43:44;;;;;;;;;;;7.80;99.90;;;;;;5030100;28;19930;-71
2024/01/30 03:46:11;;;;;;;;;;;7.70;99.90;;;;;;5030078;28;19932;-72
2024/01/30 03:48:37;;;;;;;;;;;7.60;99.90;;;;;;5030298;28;19909;-71
2024/01/30 03:51:03;;;;;;;;;;;7.60;99.90;;;;;;5030227;28;20245;-71
2024/01/30 03:53:29;;;;;;;;;;;7.60;99.90;;;;;;5012315;28;19932;-72
2024/01/30 03:55:55;;;;;;;;;;;7.60;99.90;;;;;;5030206;28;19960;-71
2024/01/30 03:58:20;;;;;;;;;;;7.70;99.90;;;;;;5030531;28;19909;-72
2024/01/30 04:00:46;;;;;;;;;;;7.70;99.90;;;;;;5012493;28;19909;-72
2024/01/30 04:03:12;;;;;;;;;;;7.70;99.90;;;;;;5030012;28;19909;-72
2024/01/30 04:05:38;;;;;;;;;;;7.70;99.90;;;;;;5030737;28;19913;-71
2024/01/30 04:08:04;;;;;;;;;;;7.70;99.90;;;;;;5031264;28;19916;-71
2024/01/30 04:10:30;;;;;;;;;;;7.60;99.90;;;;;;5031288;28;19913;-70
2024/01/30 04:12:55;;;;;;;;;;;7.60;99.90;;;;;;5030974;28;20619;-72
2024/01/30 04:15:22;;;;;;;;;;;7.60;99.90;;;;;;5031139;28;20012;-71
2024/01/30 04:17:49;;;;;;;;;;;7.70;99.90;;;;;;5030793;28;19909;-71
2024/01/30 04:20:18;;;;;;;;;;;7.60;99.90;;;;;;5031086;28;19916;-72
2024/01/30 04:22:47;;;;;;;;;;;7.60;99.90;;;;;;5013767;28;19971;-71
2024/01/30 04:25:13;;;;;;;;;;;7.60;99.90;;;;;;5032086;28;20357;-71
2024/01/30 04:27:39;;;;;;;;;;;7.60;99.90;;;;;;5031817;28;19909;-71
2024/01/30 04:30:05;;;;;;;;;;;7.60;99.90;;;;;;5032158;28;19932;-72
2024/01/30 04:32:32;;;;;;;;;;;7.60;99.90;;;;;;5031921;28;20285;-71
2024/01/30 04:34:58;;;;;;;;;;;7.50;99.90;;;;;;5031971;28;20074;-69
2024/01/30 04:37:24;;;;;;;;;;;7.50;99.90;;;;;;5013939;28;19909;-71
2024/01/30 04:39:51;;;;;;;;;;;7.50;99.90;;;;;;5031008;28;19909;-71
2024/01/30 04:42:17;;;;;;;;;;;7.50;99.90;;;;;;5031375;28;19909;-72
2024/01/30 04:44:42;;;;;;;;;;;7.40;99.90;;;;;;5031407;28;19985;-71
2024/01/30 04:47:11;;;;;;;;;;;7.40;99.90;;;;;;5031763;28;19913;-71
2024/01/30 04:49:36;;;;;;;;;;;7.40;99.90;;;;;;5032227;28;19909;-71
2024/01/30 04:52:02;;;;;;;;;;;7.50;99.90;;;;;;5032000;28;19916;-71
2024/01/30 04:54:28;;;;;;;;;;;7.50;99.90;;;;;;5032203;28;19913;-70
2024/01/30 04:56:55;;;;;;;;;;;7.50;99.90;;;;;;5032282;28;19917;-71
2024/01/30 04:59:21;;;;;;;;;;;7.50;99.90;;;;;;5014303;28;19909;-70
2024/01/30 05:01:47;;;;;;;;;;;7.50;99.90;;;;;;5032062;28;19909;-72
2024/01/30 05:04:13;;;;;;;;;;;7.50;99.90;;;;;;5010809;28;19929;-72
2024/01/30 05:06:38;;;;;;;;;;;7.40;99.90;;;;;;5010802;28;19921;-71
2024/01/30 05:09:04;;;;;;;;;;;7.40;99.90;;;;;;5011059;28;19916;-71
2024/01/30 05:11:30;;;;;;;;;;;7.40;99.90;;;;;;5012242;28;19910;-70
2024/01/30 05:13:56;;;;;;;;;;;7.40;99.90;;;;;;5012278;28;19909;-71
2024/01/30 05:16:22;;;;;;;;;;;7.50;99.90;;;;;;5012419;28;20009;-70
2024/01/30 05:18:48;;;;;;;;;;;7.60;99.90;;;;;;5012898;28;19910;-73
2024/01/30 05:21:14;;;;;;;;;;;7.60;99.90;;;;;;5011490;28;19909;-71
2024/01/30 05:23:41;;;;;;;;;;;7.60;99.90;;;;;;5044582;28;19910;-71
2024/01/30 05:26:08;;;;;;;;;;;7.60;99.90;;;;;;5015778;28;20004;-72
2024/01/30 05:28:34;;;;;;;;;;;7.70;99.90;;;;;;5015058;28;20016;-71
2024/01/30 05:30:59;;;;;;;;;;;7.70;99.90;;;;;;5016372;28;19988;-71
2024/01/30 05:33:25;;;;;;;;;;;7.70;99.90;;;;;;5016257;28;19914;-72
2024/01/30 05:35:54;;;;;;;;;;;7.80;99.90;;;;;;5016247;28;19925;-72
2024/01/30 05:38:20;;;;;;;;;;;7.80;99.90;;;;;;5014944;28;19910;-69
2024/01/30 05:40:46;;;;;;;;;;;7.80;99.90;;;;;;5016226;28;20384;-70
2024/01/30 05:43:12;;;;;;;;;;;7.80;99.90;;;;;;5016403;28;19925;-74
2024/01/30 05:45:38;;;;;;;;;;;7.70;99.90;;;;;;5016161;28;19948;-72
2024/01/30 05:48:04;;;;;;;;;;;7.70;99.90;;;;;;5015977;28;20365;-71
2024/01/30 05:50:30;;;;;;;;;;;7.70;99.90;;;;;;5015886;28;20007;-71
2024/01/30 05:52:56;;;;;;;;;;;7.70;99.90;;;;;;5014628;28;19972;-71
2024/01/30 05:55:22;;;;;;;;;;;7.70;99.90;;;;;;5015955;28;19925;-71
2024/01/30 05:57:48;;;;;;;;;;;7.80;99.90;;;;;;5014467;28;19999;-71
2024/01/30 06:00:14;;;;;;;;;;;7.80;99.90;;;;;;5015822;28;19920;-73
2024/01/30 06:02:40;;;;;;;;;;;7.80;99.90;;;;;;5015575;28;19961;-71
2024/01/30 06:05:05;;;;;;;;;;;7.80;99.90;;;;;;5031458;28;19921;-73
2024/01/30 06:07:31;;;;;;;;;;;7.80;99.90;;;;;;5035110;28;19909;-71
2024/01/30 06:09:57;;;;;;;;;;;7.80;99.90;;;;;;5035336;28;19952;-71
2024/01/30 06:12:23;;;;;;;;;;;7.90;99.90;;;;;;5035053;28;19915;-69
2024/01/30 06:14:49;;;;;;;;;;;7.90;99.90;;;;;;5034688;28;19914;-69
2024/01/30 06:17:15;;;;;;;;;;;7.90;99.90;;;;;;5034585;28;19913;-69
2024/01/30 06:19:41;;;;;;;;;;;8.00;99.90;;;;;;5034111;28;20007;-69
2024/01/30 06:22:07;;;;;;;;;;;8.10;99.90;;;;;;5034985;28;20012;-70
2024/01/30 06:24:34;;;;;;;;;;;8.10;99.90;;;;;;5034969;28;19996;-69
2024/01/30 06:27:00;;;;;;;;;;;8.20;99.90;;;;;;5034774;28;19959;-68
2024/01/30 06:29:26;;;;;;;;;;;8.20;99.90;;;;;;5034462;28;19989;-67
2024/01/30 06:31:52;;;;;;;;;;;8.30;99.90;;;;;;5033594;28;19963;-69
2024/01/30 06:34:18;;;;;;;;;;;8.30;99.90;;;;;;5033991;28;19952;-68
2024/01/30 06:36:44;;;;;;;;;;;8.50;99.90;;;;;;5033845;28;20012;-67
2024/01/30 06:39:09;;;;;;;;;;;9.00;99.90;;;;;;5033916;28;19960;-69
2024/01/30 06:41:35;;;;;;;;;;;9.60;99.90;;;;;;5033773;28;19909;-69
2024/01/30 06:44:06;;;;;;;;;;;10.00;99.90;;;;;;5033557;28;20369;-69
2024/01/30 06:46:32;;;;;;;;;;;10.00;99.90;;;;;;5015633;28;19920;-69
2024/01/30 06:48:58;;;;;;;;;;;10.10;99.90;;;;;;5033165;28;19909;-69
2024/01/30 06:51:24;;;;;;;;;;;10.40;99.90;;;;;;5014545;28;19909;-69
2024/01/30 06:53:50;;;;;;;;;;;10.90;99.90;;;;;;5015030;28;20004;-70
2024/01/30 06:56:20;;;;;;;;;;;11.30;99.90;;;;;;5032430;28;20326;-70
2024/01/30 06:58:47;;;;;;;;;;;11.80;99.90;;;;;;5032425;28;19909;-69
2024/01/30 07:01:13;;;;;;;;;;;12.20;99.90;;;;;;5014001;28;19910;-68
2024/01/30 07:03:39;;;;;;;;;;;12.40;99.90;;;;;;5031928;28;19924;-70
2024/01/30 07:06:04;;;;;;;;;;;12.70;99.90;;;;;;5014495;28;19992;-68
2024/01/30 07:08:32;;;;;;;;;;;12.70;99.90;;;;;;5032410;28;19917;-70
2024/01/30 07:10:59;;;;;;;;;;;12.30;99.90;;;;;;5032016;28;20416;-70
2024/01/30 07:13:26;;;;;;;;;;;12.20;99.90;;;;;;5032184;28;20362;-69
2024/01/30 07:15:51;;;;;;;;;;;12.00;99.90;;;;;;5014106;28;19937;-72
2024/01/30 07:18:17;;;;;;;;;;;11.90;99.90;;;;;;5032495;28;20007;-70
2024/01/30 07:20:46;;;;;;;;;;;11.70;99.90;;;;;;5022356;28;20501;-69
2024/01/30 07:23:13;;;;;;;;;;;11.40;99.90;;;;;;4995100;28;19913;-68
2024/01/30 07:25:41;;;;;;;;;;;11.10;99.90;;;;;;5013117;28;19921;-71
2024/01/30 07:28:09;;;;;;;;;;;11.20;99.90;;;;;;5013260;28;20046;-66
2024/01/30 07:30:34;;;;;;;;;;;11.40;99.90;;;;;;5013148;28;19955;-70
2024/01/30 07:33:00;;;;;;;;;;;11.40;99.90;;;;;;5012827;28;19909;-69
2024/01/30 07:35:26;;;;;;;;;;;11.30;99.90;;;;;;4994734;28;20028;-69
2024/01/30 07:37:52;;;;;;;;;;;11.60;99.90;;;;;;5012931;28;20346;-64
2024/01/30 07:40:18;;;;;;;;;;;11.90;99.90;;;;;;5012768;28;19909;-69
2024/01/30 07:42:44;;;;;;;;;;;12.00;99.90;;;;;;5012496;28;19910;-70
2024/01/30 07:45:10;;;;;;;;;;;12.20;99.90;;;;;;5012474;28;19916;-67
2024/01/30 07:47:37;;;;;;;;;;;12.40;99.90;;;;;;5011715;28;20008;-68
2024/01/30 07:50:03;;;;;;;;;;;12.70;99.90;;;;;;5011992;28;20406;-68
2024/01/30 07:52:29;;;;;;;;;;;13.60;99.90;;;;;;5011862;28;19913;-70
2024/01/30 07:54:55;;;;;;;;;;;14.60;99.90;;;;;;4994444;28;19933;-69
2024/01/30 07:57:21;;;;;;;;;;;15.30;99.90;;;;;;5027581;28;19913;-69
2024/01/30 07:59:47;;;;;;;;;;;15.60;99.90;;;;;;5012324;28;19955;-68
2024/01/30 08:02:13;;;;;;;;;;;15.50;99.90;;;;;;5012093;28;19941;-69
2024/01/30 08:04:39;;;;;;;;;;;15.30;99.90;;;;;;4994347;28;19927;-69
2024/01/30 08:07:05;;;;;;;;;;;15.10;99.90;;;;;;5011331;28;20052;-70
2024/01/30 08:09:31;;;;;;;;;;;15.00;99.90;;;;;;5012945;28;20441;-68
2024/01/30 08:11:57;;;;;;;;;;;14.90;99.90;;;;;;5030771;28;20008;-69
2024/01/30 08:14:23;;;;;;;;;;;15.10;99.90;;;;;;5031812;28;19951;-68
2024/01/30 08:16:49;;;;;;;;;;;15.20;99.90;;;;;;5031181;28;19917;-70
2024/01/30 08:19:15;;;;;;;;;;;15.00;99.90;;;;;;5030807;28;19910;-69
2024/01/30 08:21:41;;;;;;;;;;;14.90;99.90;;;;;;5031561;28;19913;-70
2024/01/30 08:24:07;;;;;;;;;;;14.70;99.90;;;;;;5031308;28;20054;-67
2024/01/30 08:26:33;;;;;;;;;;;14.60;99.90;;;;;;5031707;28;19909;-70
2024/01/30 08:28:59;;;;;;;;;;;14.80;99.90;;;;;;5031904;28;19928;-69
2024/01/30 08:31:25;;;;;;;;;;;14.50;99.90;;;;;;5031623;28;19909;-68
2024/01/30 08:33:51;;;;;;;;;;;14.00;99.90;;;;;;5031169;28;19909;-68
2024/01/30 08:36:17;;;;;;;;;;;13.60;99.90;;;;;;5031446;28;19939;-68
2024/01/30 08:38:43;;;;;;;;;;;13.00;99.90;;;;;;5014312;28;19909;-69
2024/01/30 08:41:09;;;;;;;;;;;13.10;99.90;;;;;;5031983;28;19910;-70
2024/01/30 08:43:36;;;;;;;;;;;13.30;99.90;;;;;;5031553;28;19909;-69
2024/01/30 08:46:02;;;;;;;;;;;13.70;99.90;;;;;;5014012;28;19920;-69
2024/01/30 08:48:28;;;;;;;;;;;13.80;99.90;;;;;;5014299;28;19909;-71
2024/01/30 08:50:54;;;;;;;;;;;14.20;99.90;;;;;;5030871;28;19948;-68
2024/01/30 08:53:20;;;;;;;;;;;14.20;99.90;;;;;;5031326;28;20016;-70
2024/01/30 08:55:46;;;;;;;;;;;14.50;99.90;;;;;;5031002;28;19917;-69
2024/01/30 08:58:12;;;;;;;;;;;14.70;99.90;;;;;;5031223;28;19952;-69
2024/01/30 09:00:38;;;;;;;;;;;14.30;99.90;;;;;;5033651;28;19913;-70
2024/01/30 09:03:04;;;;;;;;;;;14.40;99.90;;;;;;5034772;28;19910;-70
2024/01/30 09:05:30;;;;;;;;;;;14.20;99.90;;;;;;5034789;28;20030;-69
2024/01/30 09:07:55;;;;;;;;;;;14.30;99.90;;;;;;5034556;28;19997;-70
2024/01/30 09:10:21;;;;;;;;;;;13.90;99.90;;;;;;5034359;28;20493;-69
2024/01/30 09:12:47;;;;;;;;;;;13.90;99.90;;;;;;5016293;28;20250;-69
2024/01/30 09:15:14;;;;;;;;;;;13.90;99.90;;;;;;5034485;28;19956;-69
2024/01/30 09:17:39;;;;;;;;;;;13.90;99.90;;;;;;5034458;28;19920;-70
2024/01/30 09:20:05;;;;;;;;;;;13.90;99.90;;;;;;5035051;28;19909;-67
2024/01/30 09:22:32;;;;;;;;;;;13.70;99.90;;;;;;5034844;28;19909;-70
2024/01/30 09:24:58;;;;;;;;;;;13.50;99.90;;;;;;5033598;28;20296;-69
2024/01/30 09:27:24;;;;;;;;;;;13.50;99.90;;;;;;5034728;28;20350;-68
2024/01/30 09:29:50;;;;;;;;;;;13.50;99.90;;;;;;5034887;28;19920;-72
2024/01/30 09:32:17;;;;;;;;;;;13.60;99.90;;;;;;5034637;28;20238;-73
2024/01/30 09:34:43;;;;;;;;;;;13.60;99.90;;;;;;5015593;28;19920;-75
2024/01/30 09:37:09;;;;;;;;;;;13.50;99.90;;;;;;5033911;28;19913;-72
2024/01/30 09:39:35;;;;;;;;;;;13.30;99.90;;;;;;5033738;28;19979;-69
2024/01/30 09:42:03;;;;;;;;;;;13.10;99.90;;;;;;5033621;28;19956;-69
2024/01/30 09:44:30;;;;;;;;;;;13.20;99.90;;;;;;5033324;28;19916;-69
2024/01/30 09:46:58;;;;;;;;;;;13.40;99.90;;;;;;5033384;28;20051;-70
2024/01/30 09:49:24;;;;;;;;;;;13.70;99.90;;;;;;5033124;28;19909;-70
2024/01/30 09:51:51;;;;;;;;;;;14.00;99.90;;;;;;5033322;28;19956;-67
2024/01/30 09:54:18;;;;;;;;;;;13.90;99.90;;;;;;5033459;28;20456;-67
2024/01/30 09:56:44;;;;;;;;;;;13.80;99.90;;;;;;5034022;28;20341;-69
2024/01/30 09:59:10;;;;;;;;;;;13.90;99.90;;;;;;5034117;28;19913;-67
2024/01/30 10:01:36;;;;;;;;;;;14.20;99.90;;;;;;5033316;28;19909;-68
2024/01/30 10:04:02;;;;;;;;;;;14.00;99.90;;;;;;5033524;28;20512;-68
2024/01/30 10:06:28;;;;;;;;;;;13.70;99.90;;;;;;5033828;28;19965;-68
2024/01/30 10:08:54;;;;;;;;;;;13.60;99.90;;;;;;5032237;28;20277;-69
2024/01/30 10:11:19;;;;;;;;;;;13.60;99.90;;;;;;5033314;28;20392;-69
2024/01/30 10:13:45;;;;;;;;;;;13.50;99.90;;;;;;5033626;28;19921;-69
2024/01/30 10:16:14;;;;;;;;;;;13.60;99.90;;;;;;5033440;28;19972;-69
2024/01/30 10:18:42;;;;;;;;;;;13.80;99.90;;;;;;5033435;28;19940;-68
2024/01/30 10:21:08;;;;;;;;;;;14.10;99.90;;;;;;5033474;28;20393;-68
2024/01/30 10:23:34;;;;;;;;;;;14.50;99.90;;;;;;5033563;28;19909;-68
2024/01/30 10:26:00;;;;;;;;;;;14.70;99.90;;;;;;5033711;28;19924;-66
2024/01/30 10:28:30;;;;;;;;;;;15.00;99.90;;;;;;5033500;28;19927;-67
2024/01/30 10:31:05;;;;;;;;;;;14.90;99.90;;;;;;5033569;28;20004;-68
2024/01/30 10:33:31;;;;;;;;;;;14.90;99.90;;;;;;5033267;28;19959;-68
2024/01/30 10:36:00;;;;;;;;;;;15.00;99.90;;;;;;5033069;28;20461;-69
2024/01/30 10:38:28;;;;;;;;;;;15.10;99.90;;;;;;5015362;28;20011;-68
2024/01/30 10:40:56;;;;;;;;;;;15.20;99.90;;;;;;5033205;28;19944;-67
2024/01/30 10:43:23;;;;;;;;;;;15.40;99.90;;;;;;5033180;28;20020;-67
2024/01/30 10:45:50;;;;;;;;;;;15.10;99.90;;;;;;5033142;28;20365;-67
2024/01/30 10:48:17;;;;;;;;;;;14.70;99.90;;;;;;5032940;28;19913;-67
2024/01/30 10:50:43;;;;;;;;;;;14.50;99.90;;;;;;5022863;28;20354;-67
2024/01/30 10:53:10;;;;;;;;;;;14.50;99.90;;;;;;5013109;28;19950;-68
2024/01/30 10:55:37;;;;;;;;;;;14.20;99.90;;;;;;5012953;28;19917;-69
2024/01/30 10:58:03;;;;;;;;;;;14.20;99.90;;;;;;5013065;28;19916;-67
2024/01/30 11:00:29;;;;;;;;;;;14.40;99.90;;;;;;5012843;28;19909;-69
2024/01/30 11:02:55;;;;;;;;;;;14.30;99.90;;;;;;4995606;28;19910;-62
2024/01/30 11:05:27;;;;;;;;;;;14.20;99.90;;;;;;5031769;28;20368;-64
2024/01/30 11:07:53;;;;;;;;;;;14.10;99.90;;;;;;5032206;28;19920;-63
2024/01/30 11:10:19;;;;;;;;;;;14.20;99.90;;;;;;5032179;28;19909;-67
2024/01/30 11:12:46;;;;;;;;;;;14.20;99.90;;;;;;5032576;28;19976;-70
2024/01/30 11:15:17;;;;;;;;;;;14.50;99.90;;;;;;5031861;28;20623;-68
2024/01/30 11:17:49;;;;;;;;;;;14.60;99.90;;;;;;5014581;28;19964;-70
2024/01/30 11:20:16;;;;;;;;;;;14.80;99.90;;;;;;5014328;28;20270;-68
2024/01/30 11:22:45;;;;;;;;;;;14.80;99.90;;;;;;5031657;28;19909;-68
2024/01/30 11:25:12;;;;;;;;;;;14.80;99.90;;;;;;5032517;28;20107;-69
2024/01/30 11:27:38;;;;;;;;;;;14.80;99.90;;;;;;5032580;28;19955;-70
2024/01/30 11:30:04;;;;;;;;;;;14.70;99.90;;;;;;5014784;28;19992;-68
2024/01/30 11:32:30;;;;;;;;;;;14.60;99.90;;;;;;5032344;28;19914;-67
2024/01/30 11:34:56;;;;;;;;;;;14.40;99.90;;;;;;5032582;28;19909;-66
2024/01/30 11:37:24;;;;;;;;;;;14.30;99.90;;;;;;5032222;28;19992;-68
2024/01/30 11:39:51;;;;;;;;;;;14.30;99.90;;;;;;5014562;28;19962;-67
2024/01/30 11:42:16;;;;;;;;;;;14.70;99.90;;;;;;5032038;28;19913;-68
2024/01/30 11:44:46;;;;;;;;;;;14.60;99.90;;;;;;5014539;28;20008;-68
2024/01/30 11:47:12;;;;;;;;;;;14.60;99.90;;;;;;5031963;28;20373;-67
2024/01/30 11:49:38;;;;;;;;;;;15.10;99.90;;;;;;5031151;28;19920;-69
2024/01/30 11:52:05;;;;;;;;;;;15.60;99.90;;;;;;5031588;28;19909;-69
2024/01/30 11:54:30;;;;;;;;;;;15.90;99.90;;;;;;5013864;28;19921;-65
2024/01/30 11:56:56;;;;;;;;;;;15.80;99.90;;;;;;5031421;28;19917;-68
2024/01/30 11:59:22;;;;;;;;;;;16.10;99.90;;;;;;5031707;28;20369;-69
2024/01/30 12:01:48;;;;;;;;;;;16.50;99.90;;;;;;5031388;28;19909;-69
2024/01/30 12:04:15;;;;;;;;;;;16.60;99.90;;;;;;5031037;28;19921;-69
2024/01/30 12:06:41;;;;;;;;;;;16.70;99.90;;;;;;5031513;28;19982;-68
2024/01/30 12:09:10;;;;;;;;;;;17.00;99.90;;;;;;5031403;28;20009;-68
2024/01/30 12:11:48;;;;;;;;;;;16.80;99.90;;;;;;5013765;28;19940;-67
2024/01/30 12:14:15;;;;;;;;;;;16.80;99.90;;;;;;5031244;28;19916;-67
2024/01/30 12:16:41;;;;;;;;;;;17.00;99.90;;;;;;5031199;28;19991;-68
2024/01/30 12:19:07;;;;;;;;;;;17.20;99.90;;;;;;5031486;28;20388;-68
2024/01/30 12:21:33;;;;;;;;;;;17.30;99.90;;;;;;5031509;28;19909;-68
2024/01/30 12:23:59;;;;;;;;;;;17.20;99.90;;;;;;5031133;28;19910;-69
2024/01/30 12:26:26;;;;;;;;;;;17.10;99.90;;;;;;5031989;28;20218;-68
2024/01/30 12:28:55;;;;;;;;;;;17.10;99.90;;;;;;5032003;28;20369;-69
2024/01/30 12:31:31;;;;;;;;;;;17.20;99.90;;;;;;5031898;28;19919;-68
2024/01/30 12:33:59;;;;;;;;;;;17.40;99.90;;;;;;5033412;28;19909;-69
2024/01/30 12:36:25;;;;;;;;;;;17.50;99.90;;;;;;5036005;28;20412;-67
2024/01/30 12:38:51;;;;;;;;;;;17.40;99.90;;;;;;5036345;28;19913;-69
2024/01/30 12:41:17;;;;;;;;;;;17.40;99.90;;;;;;5036021;28;19932;-68
2024/01/30 12:43:43;;;;;;;;;;;17.40;99.90;;;;;;5035871;28;19960;-68
2024/01/30 12:46:08;;;;;;;;;;;17.40;99.90;;;;;;5017815;28;19916;-67
2024/01/30 12:48:34;;;;;;;;;;;17.50;99.90;;;;;;5035539;28;20425;-69
2024/01/30 12:51:00;;;;;;;;;;;17.60;99.90;;;;;;5035166;28;20250;-67
2024/01/30 12:53:26;;;;;;;;;;;17.60;99.90;;;;;;5035541;28;20381;-67
2024/01/30 12:55:54;;;;;;;;;;;17.50;99.90;;;;;;5017913;28;20352;-69
2024/01/30 12:58:20;;;;;;;;;;;17.60;99.90;;;;;;5035689;28;19931;-74
2024/01/30 13:00:47;;;;;;;;;;;17.50;99.90;;;;;;5035292;28;19991;-69
2024/01/30 13:03:13;;;;;;;;;;;17.50;99.90;;;;;;5034813;28;20385;-69
2024/01/30 13:05:39;;;;;;;;;;;17.30;99.90;;;;;;5035809;28;19976;-69
2024/01/30 13:08:05;;;;;;;;;;;17.40;99.90;;;;;;5017890;28;20302;-69
2024/01/30 13:10:30;;;;;;;;;;;17.40;99.90;;;;;;5017731;28;19913;-70
2024/01/30 13:12:56;;;;;;;;;;;17.40;99.90;;;;;;5035712;28;19963;-69
2024/01/30 13:15:22;;;;;;;;;;;17.50;99.90;;;;;;5035535;28;19917;-69
2024/01/30 13:17:49;;;;;;;;;;;17.40;99.90;;;;;;5035833;28;20396;-69
2024/01/30 13:20:19;;;;;;;;;;;17.40;99.90;;;;;;5018413;28;19917;-69
2024/01/30 13:22:45;;;;;;;;;;;17.40;99.90;;;;;;5035748;28;19916;-70
2024/01/30 13:25:11;;;;;;;;;;;17.50;99.90;;;;;;5034482;28;19935;-69
2024/01/30 13:27:37;;;;;;;;;;;17.60;99.90;;;;;;5018084;28;19909;-69
2024/01/30 13:30:03;;;;;;;;;;;17.60;99.90;;;;;;5036193;28;19996;-68
2024/01/30 13:32:29;;;;;;;;;;;17.50;99.90;;;;;;5035438;28;20009;-69
2024/01/30 13:34:55;;;;;;;;;;;17.50;99.90;;;;;;5035617;28;19917;-66
2024/01/30 13:37:22;;;;;;;;;;;17.50;99.90;;;;;;5035538;28;20380;-69
2024/01/30 13:39:54;;;;;;;;;;;17.50;99.90;;;;;;5034145;28;19959;-68
2024/01/30 13:42:32;;;;;;;;;;;17.40;99.90;;;;;;5035359;28;19932;-69
2024/01/30 13:44:58;;;;;;;;;;;17.30;99.90;;;;;;5032369;28;19909;-69
2024/01/30 13:47:23;;;;;;;;;;;17.20;99.90;;;;;;5035019;28;20247;-69
2024/01/30 13:49:49;;;;;;;;;;;17.20;99.90;;;;;;5031971;28;19966;-68
2024/01/30 13:52:15;;;;;;;;;;;17.10;99.90;;;;;;5015474;28;19917;-69
2024/01/30 13:54:42;;;;;;;;;;;17.20;99.90;;;;;;5014991;28;19913;-69
2024/01/30 13:57:08;;;;;;;;;;;17.30;99.90;;;;;;5014552;28;19917;-69
2024/01/30 13:59:34;;;;;;;;;;;17.20;99.90;;;;;;5014651;28;19910;-68
2024/01/30 14:02:00;;;;;;;;;;;17.10;99.90;;;;;;5014758;28;19940;-64
2024/01/30 14:04:26;;;;;;;;;;;17.10;99.90;;;;;;5013066;28;19948;-70
2024/01/30 14:06:52;;;;;;;;;;;17.10;99.90;;;;;;5014667;28;20281;-69
2024/01/30 14:09:18;;;;;;;;;;;17.00;99.90;;;;;;5014576;28;19909;-68
2024/01/30 14:11:44;;;;;;;;;;;17.00;99.90;;;;;;5014478;28;19972;-71
2024/01/30 14:14:10;;;;;;;;;;;17.00;99.90;;;;;;5013073;28;19913;-70
2024/01/30 14:16:36;;;;;;;;;;;17.10;99.90;;;;;;5014363;28;19918;-70
2024/01/30 14:19:02;;;;;;;;;;;17.10;99.90;;;;;;5014867;28;19919;-70